• Join FlightAware (Why Join?)
  • Login
  • US Flag 
07:19PM EDT


 

Airport Tracker/Info


-or-


 

Live Flight TrackerFlight Track Log ✈ TRS886 ✈ 12-May-2013 ✈ KMCO - KSTL

Flight Track Log - Related Links

Times and Time Zones

All times are in EDT time to prevent confusion due to time zone crossing. See the TRS886 flight status page for this flight to view local times or setup timezone preferences in your user account.

Time Position Orientation Groundspeed Altitude Reporting Facility
EDT Latitude Longitude Course Direction KTS MPH feet Rate Location/Type
02:16PM 28.4167 -81.3000 180° South 196 226 600  Level Orlando TRACON
02:17PM 28.3833 -81.3000 180° South 168 193 1,500 1,500 Climbing Orlando TRACON
02:18PM 28.3500 -81.3500 233° Southwest 242 278 2,700 1,800 Climbing Orlando TRACON
02:19PM 28.3500 -81.4333 270° West 261 300 5,200 2,340 Climbing Orlando TRACON
02:21PM 28.3714 -81.6375 277° West 270 311 10,900 1,980 Climbing Jacksonville Center
02:22PM 28.3931 -81.7386 284° West 300 345 12,200 1,620 Climbing Jacksonville Center
02:23PM 28.4189 -81.8447 285° West 330 380 14,200 1,620 Climbing Jacksonville Center
02:24PM 28.4533 -81.9528 290° West 348 400 15,500 1,500 Climbing Jacksonville Center
02:25PM 28.4833 -82.0611 288° West 364 419 17,200 1,620 Climbing Jacksonville Center
02:26PM 28.5153 -82.1767 287° West 369 425 18,800 1,620 Climbing Jacksonville Center
02:27PM 28.5472 -82.2922 287° West 381 438 20,500 1,500 Climbing Jacksonville Center
02:28PM 28.5831 -82.4150 288° West 393 452 21,900 1,380 Climbing Jacksonville Center
02:29PM 28.6189 -82.5403 288° West 406 467 23,300 1,440 Climbing Jacksonville Center
02:30PM 28.6547 -82.6656 288° West 416 479 24,800 1,380 Climbing Jacksonville Center
02:31PM 28.6903 -82.7883 288° West 416 479 26,100 1,260 Climbing Jacksonville Center
02:32PM 28.7489 -82.9044 300° West 416 479 27,400 1,800 Climbing Jacksonville Center
02:33PM 28.8489 -82.9850 325° Northwest 416 479 29,800 1,800 Climbing Jacksonville Center
02:34PM 28.9450 -83.0564 327° Northwest 416 479 31,100 1,020 Climbing Jacksonville Center
02:35PM 29.0408 -83.1325 325° Northwest 416 479 31,900 600 Climbing Jacksonville Center
02:36PM 29.1347 -83.2017 327° Northwest 410 472 32,400 960 Climbing Jacksonville Center
02:37PM 29.2242 -83.2733 325° Northwest 405 466 33,900 780 Climbing Jacksonville Center
02:38PM 29.3158 -83.3428 327° Northwest 399 459 34,000  Climbing Jacksonville Center
02:39PM 29.3950 -83.4050 326° Northwest 399 459 34,000  Level Jacksonville Center
02:40PM 29.4864 -83.4747 326° Northwest 399 459 34,000  Level Jacksonville Center
02:41PM 29.5758 -83.5444 326° Northwest 399 459 34,000  Level Jacksonville Center
02:42PM 29.6631 -83.6167 324° Northwest 394 453 34,000  Level Jacksonville Center
02:43PM 29.7547 -83.6844 327° Northwest 394 453 34,000  Level Jacksonville Center
02:44PM 29.8439 -83.7547 326° Northwest 394 453 34,000  Level Jacksonville Center
02:45PM 29.9311 -83.8225 326° Northwest 394 453 34,000 -60 Level Jacksonville Center
02:46PM 30.0225 -83.8931 326° Northwest 394 453 33,900  Descending Jacksonville Center
02:47PM 30.1117 -83.9611 327° Northwest 394 453 34,000  Climbing Jacksonville Center
02:48PM 30.1989 -84.0317 325° Northwest 394 453 34,000  Level Jacksonville Center
02:49PM 30.2858 -84.1025 325° Northwest 389 448 34,000  Level Jacksonville Center
02:50PM 30.3769 -84.1711 327° Northwest 389 448 34,000  Level Jacksonville Center
02:51PM 30.4722 -84.2472 325° Northwest 384 442 34,000  Level Jacksonville Center
02:52PM 30.5428 -84.3036 325° Northwest 389 448 34,000  Level Jacksonville Center
02:53PM 30.6378 -84.3822 325° Northwest 383 441 34,000  Level Jacksonville Center
02:54PM 30.7267 -84.4536 325° Northwest 383 441 34,000  Level Jacksonville Center
02:55PM 30.8075 -84.5156 327° Northwest 383 441 34,000  Level Jacksonville Center
02:56PM 30.9044 -84.5947 325° Northwest 383 441 34,000  Level Jacksonville Center
02:57PM 30.9911 -84.6642 326° Northwest 378 435 34,000  Level Jacksonville Center
02:58PM 31.0800 -84.7361 325° Northwest 378 435 34,000  Level Jacksonville Center
03:00PM 31.2950 -84.9089 326° Northwest 383 441 34,000  Level Atlanta Center
03:01PM 31.3842 -84.9825 325° Northwest 377 434 34,000  Level Atlanta Center
03:02PM 31.4733 -85.0567 325° Northwest 382 440 34,000  Level Atlanta Center
03:03PM 31.5644 -85.1308 325° Northwest 388 447 34,000  Level Atlanta Center
03:04PM 31.6514 -85.2000 326° Northwest 388 447 34,000  Level Atlanta Center
03:05PM 31.7425 -85.2744 325° Northwest 388 447 34,000  Level Atlanta Center
03:06PM 31.8317 -85.3467 325° Northwest 394 453 34,000  Level Atlanta Center
03:07PM 31.9247 -85.4239 325° Northwest 400 460 34,000  Level Atlanta Center
03:08PM 32.0178 -85.4989 326° Northwest 400 460 34,000  Level Atlanta Center
03:09PM 32.1067 -85.5714 325° Northwest 400 460 34,000  Level Atlanta Center
03:10PM 32.1953 -85.6464 324° Northwest 395 455 34,000  Level Atlanta Center
03:11PM 32.2842 -85.7194 325° Northwest 395 455 34,000  Level Atlanta Center
03:12PM 32.3708 -85.7947 324° Northwest 395 455 34,000  Level Atlanta Center
03:13PM 32.4553 -85.8703 323° Northwest 390 449 34,000  Level Atlanta Center
03:14PM 32.5461 -85.9386 328° Northwest 390 449 34,000  Level Atlanta Center
03:15PM 32.6242 -86.0069 324° Northwest 385 443 34,000  Level Atlanta Center
03:16PM 32.7128 -86.0781 326° Northwest 385 443 34,000  Level Atlanta Center
03:17PM 32.7992 -86.1542 323° Northwest 385 443 34,000  Level Atlanta Center
03:18PM 32.8875 -86.2356 322° Northwest 385 443 34,000  Level Atlanta Center
03:19PM 32.9761 -86.3019 328° Northwest 377 434 34,000  Level Atlanta Center
03:20PM 33.0644 -86.3761 325° Northwest 383 441 34,000  Level Atlanta Center
03:21PM 33.1506 -86.4578 322° Northwest 383 441 34,000  Level Atlanta Center
03:22PM 33.2392 -86.5225 329° Northwest 383 441 34,000  Level Atlanta Center
03:23PM 33.3314 -86.6072 323° Northwest 377 434 34,000  Level Atlanta Center
03:24PM 33.4194 -86.6819 325° Northwest 377 434 34,000  Level Atlanta Center
03:25PM 33.5056 -86.7567 324° Northwest 382 440 34,000  Level Atlanta Center
03:26PM 33.5914 -86.8319 324° Northwest 382 440 34,000  Level Atlanta Center
03:27PM 33.6753 -86.9044 324° Northwest 375 432 34,000  Level Atlanta Center
03:28PM 33.7614 -86.9722 327° Northwest 375 432 34,000  Level Atlanta Center
03:30PM 33.9342 -87.1125 326° Northwest 404 465 34,000  Level Memphis Center
03:31PM 34.0233 -87.1769 329° Northwest 386 444 34,000  Level Memphis Center
03:32PM 34.1086 -87.2464 326° Northwest 374 430 34,000  Level Memphis Center
03:33PM 34.1981 -87.3136 328° Northwest 382 440 34,000  Level Memphis Center
03:34PM 34.2853 -87.3858 326° Northwest 382 440 34,000  Level Memphis Center
03:35PM 34.3767 -87.4556 328° Northwest 377 434 34,000  Level Memphis Center
03:36PM 34.4639 -87.5283 325° Northwest 377 434 34,000  Level Memphis Center
03:37PM 34.5511 -87.6011 326° Northwest 377 434 34,000  Level Memphis Center
03:38PM 34.6444 -87.6711 328° Northwest 388 447 34,000  Level Memphis Center
03:39PM 34.7231 -87.7369 325° Northwest 388 447 34,000  Level Memphis Center
03:40PM 34.8164 -87.8097 327° Northwest 388 447 34,000  Level Memphis Center
03:41PM 34.9053 -87.8831 326° Northwest 394 453 34,000  Level Memphis Center
03:42PM 34.9986 -87.9589 326° Northwest 400 460 34,000  Level Memphis Center
03:43PM 35.0919 -88.0325 327° Northwest 405 466 34,000  Level Memphis Center
03:44PM 35.1831 -88.1139 324° Northwest 405 466 34,000  Level Memphis Center
03:45PM 35.2783 -88.1900 327° Northwest 405 466 34,000  Level Memphis Center
03:46PM 35.3714 -88.2667 326° Northwest 405 466 34,000  Level Memphis Center
03:47PM 35.4644 -88.3381 328° Northwest 405 466 34,000  Level Memphis Center
03:48PM 35.5575 -88.4200 324° Northwest 405 466 34,000  Level Memphis Center
03:49PM 35.6525 -88.4969 327° Northwest 405 466 34,000  Level Memphis Center
03:50PM 35.7453 -88.5767 325° Northwest 405 466 34,000 -120 Level Memphis Center
03:51PM 35.8361 -88.6492 327° Northwest 405 466 33,800 -960 Descending Memphis Center
03:52PM 35.9269 -88.7267 325° Northwest 405 466 32,100 -900 Descending Memphis Center
03:53PM 36.0153 -88.8019 325° Northwest 405 466 32,000 -60 Descending Memphis Center
03:54PM 36.1081 -88.8822 325° Northwest 405 466 32,000  Level Memphis Center
03:55PM 36.1986 -88.9578 326° Northwest 405 466 32,000  Level Memphis Center
03:56PM 36.2911 -89.0336 327° Northwest 405 466 32,000  Level Memphis Center
03:57PM 36.3961 -89.0936 335° Northwest 405 466 32,000  Level Memphis Center
03:58PM 36.5031 -89.1539 336° Northwest 410 472 32,000  Level Memphis Center
03:59PM 36.6097 -89.2144 336° Northwest 415 478 32,000  Level Memphis Center
04:00PM 36.7125 -89.2775 334° Northwest 415 478 32,000  Level Memphis Center
04:01PM 36.8172 -89.3383 335° Northwest 415 478 32,000 -420 Level Memphis Center
04:04PM 37.0433 -89.4664 336° Northwest 419 482 30,700 -1,440 Descending Kansas City Center
04:05PM 37.1686 -89.5378 336° Northwest 413 475 27,500 -2,280 Descending Kansas City Center
04:06PM 37.2694 -89.5975 335° Northwest 404 465 26,000 -780 Descending Kansas City Center
04:07PM 37.3722 -89.6525 337° Northwest 401 461 26,000  Level Kansas City Center
04:08PM 37.4747 -89.7081 337° Northwest 401 461 26,000 -240 Level Kansas City Center
04:09PM 37.5753 -89.7639 336° Northwest 397 457 25,600 -1,440 Descending Kansas City Center
04:10PM 37.6678 -89.8161 336° Northwest 385 443 23,100 -2,580 Descending Kansas City Center
04:11PM 37.7789 -89.8767 337° Northwest 367 422 20,300 -2,580 Descending Kansas City Center
04:12PM 37.8736 -89.9253 338° Northwest 348 400 17,800 -2,400 Descending Kansas City Center
04:13PM 37.9578 -89.9742 335° Northwest 334 384 15,400 -2,400 Descending Kansas City Center
04:14PM 38.0389 -90.0181 337° Northwest 320 368 12,900 -2,100 Descending Kansas City Center
04:15PM 38.1114 -90.0578 337° Northwest 308 354 11,100 -1,320 Descending Kansas City Center
04:16PM 38.1886 -90.0592 359° North 290 334 10,200 -1,080 Descending Kansas City Center
04:17PM 38.2744 -90.0500 North 264 304 8,900 -1,440 Descending Kansas City Center
04:18PM 38.3453 -90.0450 North 259 298 7,300 -1,380 Descending Kansas City Center
04:19PM 38.4158 -90.0397 North 257 296 6,100 -720 Descending Kansas City Center
04:20PM 38.4803 -90.0586 347° North 245 282 5,900 -840 Descending Kansas City Center
04:21PM 38.5367 -90.0822 342° North 225 259 4,500 -1,200 Descending Kansas City Center
04:22PM 38.5875 -90.1158 333° Northwest 214 246 3,500 -480 Descending Kansas City Center
04:23PM 38.6486 -90.1575 332° Northwest 209 241 3,600 -180 Climbing Kansas City Center
04:24PM 38.6750 -90.2094 303° West 184 212 3,200 -720 Descending Kansas City Center
04:25PM 38.6994 -90.2603 302° West 175 201 2,200 -900 Descending Kansas City Center
04:26PM 38.7217 -90.3047 303° West 158 182 1,400 -780 Descending Kansas City Center
04:27PM 38.7417 -90.3442 303° West 142 163 700 -720 Descending Kansas City Center
04:29PM 38.7333 -90.3667 345° North  Level FlightAware Approximate